createdAt,value
2022-10-19T00:02:29.132Z,13.80
2022-10-19T00:05:11.843Z,12.68
2022-10-19T00:07:40.870Z,14.32
2022-10-19T00:10:09.869Z,11.20
2022-10-19T00:12:39.080Z,11.85
2022-10-19T00:15:09.081Z,14.68
2022-10-19T00:17:40.663Z,17.10
2022-10-19T00:20:12.084Z,12.50
2022-10-19T00:22:43.152Z,11.07
2022-10-19T00:27:41.725Z,11.27
2022-10-19T00:30:10.294Z,10.82
2022-10-19T00:32:41.312Z,13.40
2022-10-19T00:35:12.985Z,13.30
2022-10-19T00:37:43.099Z,10.73
2022-10-19T00:40:15.301Z,13.18
2022-10-19T00:42:48.793Z,11.07
2022-10-19T00:45:21.480Z,16.05
2022-10-19T00:47:53.071Z,12.88
2022-10-19T00:50:26.435Z,16.38
2022-10-19T00:53:07.043Z,11.20
2022-10-19T00:55:44.358Z,11.27
2022-10-19T00:58:25.241Z,13.73
2022-10-19T01:00:55.367Z,11.65
2022-10-19T01:03:23.376Z,14.83
2022-10-19T01:05:50.927Z,13.27
2022-10-19T01:08:21.714Z,11.45
2022-10-19T01:11:17.018Z,12.73
2022-10-19T01:14:48.614Z,11.45
2022-10-19T01:17:56.595Z,13.10
2022-10-19T01:21:00.097Z,12.30
2022-10-19T01:23:59.518Z,13.35
2022-10-19T01:26:51.354Z,10.57
2022-10-19T01:30:13.471Z,11.20
2022-10-19T01:33:19.831Z,9.48
2022-10-19T01:36:46.552Z,12.02
2022-10-19T01:39:50.250Z,10.30
2022-10-19T01:45:49.237Z,13.88
2022-10-19T01:48:39.629Z,10.70
2022-10-19T01:51:25.495Z,9.77
2022-10-19T01:54:02.739Z,9.57
2022-10-19T01:56:33.024Z,11.65
2022-10-19T01:59:05.123Z,10.52
2022-10-19T02:01:37.427Z,10.77
2022-10-19T02:04:09.875Z,9.90
2022-10-19T02:06:40.030Z,9.65
2022-10-19T02:09:25.217Z,8.85
2022-10-19T02:12:01.559Z,9.50
2022-10-19T02:14:37.529Z,9.13
2022-10-19T02:20:05.941Z,20.42
2022-10-19T02:22:34.260Z,15.40
2022-10-19T02:25:07.265Z,12.55
2022-10-19T02:27:37.767Z,9.80
2022-10-19T02:30:09.043Z,13.20
2022-10-19T02:32:44.892Z,8.98
2022-10-19T02:35:19.449Z,10.05
2022-10-19T02:37:50.397Z,11.60
2022-10-19T02:40:28.407Z,9.18
2022-10-19T02:43:10.784Z,10.60
2022-10-19T02:45:56.982Z,10.77
2022-10-19T02:48:26.902Z,9.02
2022-10-19T02:50:54.769Z,9.55
2022-10-19T02:53:27.706Z,8.70
2022-10-19T02:56:00.773Z,9.45
2022-10-19T02:58:28.541Z,8.90
2022-10-19T03:01:00.455Z,9.02
2022-10-19T03:03:33.533Z,9.80
2022-10-19T03:06:10.735Z,9.88
2022-10-19T03:08:40.222Z,9.45
2022-10-19T03:11:08.342Z,8.52
2022-10-19T03:16:16.890Z,8.98
2022-10-19T03:18:57.854Z,8.77
2022-10-19T03:21:28.965Z,7.82
2022-10-19T03:23:57.835Z,8.88
2022-10-19T03:29:13.152Z,8.55
2022-10-19T03:31:43.377Z,11.52
2022-10-19T03:34:27.051Z,9.38
2022-10-19T03:37:00.911Z,10.07
2022-10-19T03:39:31.627Z,12.55
2022-10-19T03:41:59.200Z,10.95
2022-10-19T03:44:26.818Z,11.75
2022-10-19T03:46:58.638Z,15.32
2022-10-19T03:49:28.909Z,11.93
2022-10-19T03:52:01.054Z,13.38
2022-10-19T03:54:29.023Z,19.10
2022-10-19T03:57:04.475Z,13.05
2022-10-19T03:59:34.902Z,15.68
2022-10-19T04:02:05.885Z,13.75
2022-10-19T04:04:33.646Z,19.38
2022-10-19T04:07:03.059Z,16.92
2022-10-19T04:09:33.738Z,14.50
2022-10-19T04:12:03.776Z,17.25
2022-10-19T04:14:52.553Z,13.67
2022-10-19T04:20:28.749Z,16.50
2022-10-19T04:22:58.173Z,16.35
2022-10-19T04:28:17.947Z,14.70
2022-10-19T04:30:48.564Z,18.10
2022-10-19T04:33:29.710Z,22.45
2022-10-19T04:36:10.580Z,35.15
2022-10-19T04:41:36.642Z,32.78
2022-10-19T04:44:15.186Z,24.98
2022-10-19T04:46:53.857Z,17.20
2022-10-19T04:52:02.597Z,16.73
2022-10-19T04:54:34.663Z,19.50
2022-10-19T04:57:04.719Z,14.73
2022-10-19T04:59:42.190Z,15.23
2022-10-19T05:02:10.225Z,15.77
2022-10-19T05:04:38.301Z,14.32
2022-10-19T05:07:06.481Z,15.75
2022-10-19T05:09:33.217Z,13.25
2022-10-19T05:11:59.967Z,14.70
2022-10-19T05:16:54.618Z,16.83
2022-10-19T05:19:21.279Z,13.10
2022-10-19T05:21:47.979Z,11.65
2022-10-19T05:24:14.678Z,11.82
2022-10-19T05:26:41.413Z,12.65
2022-10-19T05:29:12.364Z,11.80
2022-10-19T05:34:05.795Z,11.10
2022-10-19T05:36:37.761Z,12.60
2022-10-19T05:39:13.080Z,14.73
2022-10-19T05:41:41.736Z,18.08
2022-10-19T05:44:12.062Z,12.18
2022-10-19T05:46:38.741Z,13.48
2022-10-19T05:49:05.430Z,13.60
2022-10-19T05:51:32.160Z,11.60
2022-10-19T05:53:59.419Z,10.93
2022-10-19T05:56:28.561Z,12.90
2022-10-19T05:59:00.395Z,10.38
2022-10-19T06:01:28.483Z,10.55
2022-10-19T06:03:57.547Z,12.93
2022-10-19T06:06:25.987Z,9.55
2022-10-19T06:08:54.207Z,11.88
2022-10-19T06:11:23.581Z,11.13
2022-10-19T06:13:51.842Z,11.95
2022-10-19T06:16:19.580Z,11.10
2022-10-19T06:18:46.367Z,10.48
2022-10-19T06:21:19.257Z,11.27
2022-10-19T06:23:57.126Z,11.75
2022-10-19T06:26:25.131Z,11.10
2022-10-19T06:28:54.523Z,13.82
2022-10-19T06:31:21.273Z,10.30
2022-10-19T06:33:49.450Z,11.27
2022-10-19T06:36:23.327Z,11.93
2022-10-19T06:38:50.397Z,11.52
2022-10-19T06:41:17.751Z,15.98
2022-10-19T06:43:44.888Z,13.30
2022-10-19T06:46:20.327Z,13.48
2022-10-19T06:48:55.030Z,18.95
2022-10-19T06:51:22.733Z,11.93
2022-10-19T06:53:52.868Z,13.25
2022-10-19T06:56:24.427Z,16.23
2022-10-19T06:58:51.472Z,14.65
2022-10-19T07:01:18.424Z,20.15
2022-10-19T07:03:45.245Z,13.10
2022-10-19T07:06:13.362Z,16.38
2022-10-19T07:08:41.603Z,11.68
2022-10-19T07:11:11.194Z,15.70
2022-10-19T07:13:38.019Z,17.60
2022-10-19T07:16:17.605Z,14.45
2022-10-19T07:18:49.422Z,16.48
2022-10-19T07:21:16.655Z,17.73
2022-10-19T07:23:44.910Z,15.00
2022-10-19T07:26:17.673Z,17.45
2022-10-19T07:28:47.067Z,16.02
2022-10-19T07:31:20.243Z,22.52
2022-10-19T07:33:48.131Z,17.92
2022-10-19T07:36:14.893Z,19.50
2022-10-19T07:38:41.687Z,19.30
2022-10-19T07:41:13.857Z,18.80
2022-10-19T07:43:41.289Z,19.00
2022-10-19T07:46:16.476Z,22.30
2022-10-19T07:48:44.109Z,24.70
2022-10-19T07:51:13.096Z,24.88
2022-10-19T07:53:40.731Z,22.20
2022-10-19T07:56:12.307Z,17.17
2022-10-19T07:58:39.913Z,17.17
2022-10-19T08:01:13.110Z,20.98
2022-10-19T08:04:31.779Z,15.82
2022-10-19T08:06:27.839Z,20.30
2022-10-19T08:08:55.375Z,16.58
2022-10-19T08:11:27.783Z,14.27
2022-10-19T08:13:54.962Z,13.65
2022-10-19T08:16:37.275Z,17.17
2022-10-19T08:19:09.781Z,20.33
2022-10-19T08:21:37.856Z,15.02
2022-10-19T08:24:05.285Z,13.52
2022-10-19T08:26:38.893Z,13.55
2022-10-19T08:29:15.201Z,12.75
2022-10-19T08:31:43.236Z,12.07
2022-10-19T08:34:10.770Z,15.10
2022-10-19T08:36:37.682Z,11.63
2022-10-19T08:39:06.707Z,13.93
2022-10-19T08:41:57.664Z,16.48
2022-10-19T08:44:33.382Z,16.85
2022-10-19T08:47:41.529Z,12.48
2022-10-19T08:50:27.525Z,19.15
2022-10-19T08:53:12.485Z,12.73
2022-10-19T08:55:49.942Z,15.93
2022-10-19T08:58:30.853Z,10.00
2022-10-19T09:03:55.778Z,8.98
2022-10-19T09:08:57.089Z,10.52
2022-10-19T09:11:28.470Z,8.95
2022-10-19T09:14:11.003Z,11.23
2022-10-19T09:16:37.767Z,14.18
2022-10-19T09:19:17.896Z,9.25
2022-10-19T09:21:54.418Z,12.02
2022-10-19T09:24:27.650Z,11.15
2022-10-19T09:26:58.594Z,8.88
2022-10-19T09:29:40.267Z,8.40
2022-10-19T09:32:21.550Z,8.85
2022-10-19T09:35:14.402Z,10.95
2022-10-19T09:37:45.462Z,8.25
2022-10-19T09:40:19.031Z,7.45
2022-10-19T09:42:45.749Z,7.22
2022-10-19T09:45:43.422Z,8.15
2022-10-19T09:48:28.846Z,7.88
2022-10-19T09:51:00.894Z,7.25
2022-10-19T09:53:29.439Z,7.07
2022-10-19T09:56:00.454Z,6.10
2022-10-19T09:58:50.507Z,5.72
2022-10-19T10:01:46.675Z,5.60
2022-10-19T10:04:18.367Z,7.68
2022-10-19T10:06:48.041Z,7.22
2022-10-19T10:09:22.045Z,6.20
2022-10-19T10:11:51.020Z,6.18
2022-10-19T10:14:17.743Z,7.95
2022-10-19T10:16:45.614Z,6.72
2022-10-19T10:19:15.635Z,6.03
2022-10-19T10:21:52.523Z,6.18
2022-10-19T10:24:21.641Z,8.68
2022-10-19T10:26:49.996Z,7.80
2022-10-19T10:29:21.212Z,6.20
2022-10-19T10:32:02.286Z,6.38
2022-10-19T10:34:46.001Z,9.35
2022-10-19T10:37:22.249Z,7.15
2022-10-19T10:39:53.792Z,7.55
2022-10-19T10:42:36.959Z,8.02
2022-10-19T10:45:04.669Z,7.07
2022-10-19T10:47:31.848Z,7.95
2022-10-19T10:50:02.872Z,6.60
2022-10-19T10:55:02.821Z,7.10
2022-10-19T10:57:38.395Z,6.88
2022-10-19T11:00:12.098Z,8.05
2022-10-19T11:03:14.256Z,7.70
2022-10-19T11:05:53.209Z,9.63
2022-10-19T11:08:35.864Z,7.85
2022-10-19T11:11:25.320Z,8.93
2022-10-19T11:13:59.109Z,6.80
2022-10-19T11:16:33.656Z,7.47
2022-10-19T11:19:23.847Z,7.10
2022-10-19T11:22:28.704Z,6.87
2022-10-19T11:25:00.959Z,7.93
2022-10-19T11:27:52.341Z,8.05
2022-10-19T11:30:21.654Z,8.40
2022-10-19T11:32:57.356Z,7.68
2022-10-19T11:35:32.840Z,8.25
2022-10-19T11:38:20.866Z,10.13
2022-10-19T11:41:19.778Z,8.10
2022-10-19T11:43:46.424Z,8.05
2022-10-19T11:46:25.872Z,6.72
2022-10-19T11:49:13.084Z,6.55
2022-10-19T11:51:52.369Z,7.10
2022-10-19T11:54:40.228Z,7.47
2022-10-19T11:57:25.046Z,7.18
2022-10-19T12:00:13.517Z,6.63
2022-10-19T12:02:49.070Z,6.82
2022-10-19T12:05:15.701Z,6.50
2022-10-19T12:08:01.666Z,6.72
2022-10-19T12:10:28.298Z,6.38
2022-10-19T12:13:10.350Z,6.20
2022-10-19T12:15:47.069Z,7.32
2022-10-19T12:18:22.627Z,6.50
2022-10-19T12:20:52.447Z,7.53
2022-10-19T12:23:36.353Z,7.20
2022-10-19T12:26:07.372Z,6.75
2022-10-19T12:28:41.908Z,7.13
2022-10-19T12:31:11.182Z,6.72
2022-10-19T12:33:49.153Z,6.38
2022-10-19T12:36:49.042Z,9.85
2022-10-19T12:39:20.109Z,5.80
2022-10-19T12:41:58.871Z,6.05
2022-10-19T12:44:47.262Z,6.03
2022-10-19T12:47:32.891Z,6.28
2022-10-19T12:50:00.449Z,6.82
2022-10-19T12:52:44.479Z,6.30
2022-10-19T12:55:35.175Z,7.93
2022-10-19T12:58:05.594Z,6.65
2022-10-19T13:03:13.535Z,5.93
2022-10-19T13:05:40.390Z,5.80
2022-10-19T13:08:10.802Z,5.60
2022-10-19T13:10:40.556Z,5.18
2022-10-19T13:13:45.847Z,8.30
2022-10-19T13:16:39.838Z,7.43
2022-10-19T13:19:12.364Z,5.70
2022-10-19T13:21:49.397Z,5.80
2022-10-19T13:24:25.239Z,6.78
2022-10-19T13:27:04.187Z,5.28
2022-10-19T13:29:39.752Z,5.00
2022-10-19T13:32:31.737Z,5.15
2022-10-19T13:35:25.099Z,6.75
2022-10-19T13:38:12.574Z,6.60
2022-10-19T13:41:02.350Z,5.25
2022-10-19T13:43:34.104Z,5.97
2022-10-19T13:46:04.148Z,6.68
2022-10-19T13:49:05.134Z,6.35
2022-10-19T13:51:43.781Z,7.50
2022-10-19T13:54:10.688Z,5.85
2022-10-19T13:56:49.011Z,6.68
2022-10-19T13:59:28.131Z,6.10
2022-10-19T14:02:18.507Z,6.03
2022-10-19T14:04:57.016Z,6.22
2022-10-19T14:07:33.158Z,6.22
2022-10-19T14:10:03.269Z,6.03
2022-10-19T14:12:33.927Z,6.60
2022-10-19T14:17:34.117Z,8.63
2022-10-19T14:20:01.790Z,6.50
2022-10-19T14:22:36.082Z,6.88
2022-10-19T14:25:27.164Z,6.57
2022-10-19T14:28:02.123Z,9.18
2022-10-19T14:30:32.390Z,8.95
2022-10-19T14:33:02.339Z,8.70
2022-10-19T14:35:36.029Z,6.95
2022-10-19T14:38:08.588Z,7.60
2022-10-19T14:40:41.050Z,9.30
2022-10-19T14:43:27.378Z,7.25
2022-10-19T14:46:16.513Z,7.18
2022-10-19T14:48:45.640Z,9.15
2022-10-19T14:51:31.305Z,7.18
2022-10-19T14:54:24.813Z,10.90
2022-10-19T14:57:06.458Z,10.82
2022-10-19T14:59:49.292Z,7.20
2022-10-19T15:02:21.591Z,9.65
2022-10-19T15:04:49.733Z,6.80
2022-10-19T15:07:27.163Z,7.18
2022-10-19T15:09:59.508Z,7.22
2022-10-19T15:12:30.402Z,6.70
2022-10-19T15:14:57.649Z,7.13
2022-10-19T15:17:28.213Z,6.70
2022-10-19T15:19:56.650Z,6.70
2022-10-19T15:22:32.856Z,6.72
2022-10-19T15:25:08.894Z,8.25
2022-10-19T15:27:50.023Z,8.57
2022-10-19T15:30:30.543Z,7.80
2022-10-19T15:33:03.425Z,7.43
2022-10-19T15:35:36.341Z,6.90
2022-10-19T15:38:13.575Z,7.90
2022-10-19T15:40:42.893Z,9.65
2022-10-19T15:43:30.407Z,6.78
2022-10-19T15:46:07.543Z,7.72
2022-10-19T15:48:55.191Z,7.20
2022-10-19T15:51:28.389Z,7.28
2022-10-19T15:54:03.850Z,7.00
2022-10-19T15:56:32.599Z,8.27
2022-10-19T15:59:01.366Z,8.23
2022-10-19T16:01:31.087Z,8.18
2022-10-19T16:03:58.750Z,7.50
2022-10-19T16:06:28.749Z,7.80
2022-10-19T16:08:55.817Z,7.78
2022-10-19T16:11:23.294Z,7.22
2022-10-19T16:13:50.435Z,6.85
2022-10-19T16:16:28.026Z,7.22
2022-10-19T16:18:55.610Z,7.15
2022-10-19T16:21:25.856Z,6.72
2022-10-19T16:23:52.909Z,9.55
2022-10-19T16:26:20.123Z,8.73
2022-10-19T16:28:48.578Z,8.13
2022-10-19T16:31:16.210Z,8.02
2022-10-19T16:33:42.968Z,8.55
2022-10-19T16:36:09.826Z,8.05
2022-10-19T16:38:37.030Z,7.40
2022-10-19T16:41:06.642Z,8.73
2022-10-19T16:43:33.609Z,7.70
2022-10-19T16:46:00.675Z,7.25
2022-10-19T16:48:27.486Z,7.28
2022-10-19T16:51:28.318Z,6.93
2022-10-19T16:53:57.533Z,9.68
2022-10-19T16:56:25.696Z,9.15
2022-10-19T16:58:59.723Z,7.95
2022-10-19T17:01:27.763Z,7.88
2022-10-19T17:03:55.437Z,8.10
2022-10-19T17:06:23.243Z,8.20
2022-10-19T17:09:29.895Z,7.95
2022-10-19T17:11:39.293Z,8.45
2022-10-19T17:14:10.519Z,9.20
2022-10-19T17:16:38.027Z,9.27
2022-10-19T17:19:06.365Z,8.25
2022-10-19T17:21:38.108Z,8.50
2022-10-19T17:24:07.095Z,8.93
2022-10-19T17:26:37.582Z,8.40
2022-10-19T17:29:05.929Z,8.90
2022-10-19T17:31:33.293Z,8.07
2022-10-19T17:34:00.762Z,7.15
2022-10-19T17:36:30.375Z,8.48
2022-10-19T17:39:00.749Z,7.95
2022-10-19T17:41:29.073Z,10.95
2022-10-19T17:43:57.081Z,9.50
2022-10-19T17:46:26.182Z,9.82
2022-10-19T17:48:53.329Z,7.13
2022-10-19T17:51:27.054Z,7.40
2022-10-19T17:53:56.336Z,7.47
2022-10-19T17:56:23.467Z,7.63
2022-10-19T17:58:50.838Z,8.75
2022-10-19T18:01:19.986Z,9.75
2022-10-19T18:03:47.427Z,8.82
2022-10-19T18:06:17.142Z,11.65
2022-10-19T18:08:46.687Z,9.23
2022-10-19T18:11:16.731Z,8.18
2022-10-19T18:13:43.982Z,9.02
2022-10-19T18:16:17.495Z,7.53
2022-10-19T18:18:46.189Z,10.60
2022-10-19T18:21:15.301Z,10.25
2022-10-19T18:23:42.090Z,9.73
2022-10-19T18:26:11.859Z,10.80
2022-10-19T18:28:38.585Z,9.48
2022-10-19T18:31:14.237Z,8.27
2022-10-19T18:33:41.422Z,9.15
2022-10-19T18:36:10.427Z,7.55
2022-10-19T18:38:38.294Z,8.20
2022-10-19T18:43:43.681Z,8.18
2022-10-19T18:46:10.834Z,7.88
2022-10-19T18:48:38.341Z,9.02
2022-10-19T18:51:07.161Z,7.63
2022-10-19T18:53:34.893Z,8.20
2022-10-19T18:56:04.942Z,9.82
2022-10-19T18:58:32.485Z,7.57
2022-10-19T19:01:09.087Z,10.80
2022-10-19T19:03:37.179Z,8.75
2022-10-19T19:06:06.471Z,8.77
2022-10-19T19:08:33.429Z,9.30
2022-10-19T19:11:32.971Z,8.20
2022-10-19T19:14:06.626Z,11.55
2022-10-19T19:16:36.069Z,9.57
2022-10-19T19:19:03.662Z,9.15
2022-10-19T19:21:31.815Z,8.23
2022-10-19T19:24:01.310Z,9.05
2022-10-19T19:26:32.747Z,9.57
2022-10-19T19:28:59.861Z,13.77
2022-10-19T19:31:26.634Z,14.32
2022-10-19T19:33:53.362Z,10.88
2022-10-19T19:36:20.882Z,9.57
2022-10-19T19:38:50.472Z,8.55
2022-10-19T19:41:17.819Z,10.00
2022-10-19T19:43:44.788Z,8.75
2022-10-19T19:46:17.684Z,8.32
2022-10-19T19:48:46.838Z,9.32
2022-10-19T19:51:16.272Z,8.48
2022-10-19T19:53:43.304Z,9.70
2022-10-19T19:56:12.318Z,8.20
2022-10-19T19:58:39.313Z,8.65
2022-10-19T20:01:13.638Z,8.48
2022-10-19T20:03:40.938Z,8.60
2022-10-19T20:06:08.156Z,8.73
2022-10-19T20:08:36.776Z,8.63
2022-10-19T20:11:12.077Z,9.65
2022-10-19T20:13:39.590Z,10.10
2022-10-19T20:16:14.196Z,9.18
2022-10-19T20:18:43.240Z,11.60
2022-10-19T20:21:10.151Z,8.05
2022-10-19T20:23:37.047Z,8.40
2022-10-19T20:26:03.995Z,7.60
2022-10-19T20:28:32.995Z,9.23
2022-10-19T20:31:05.456Z,11.18
2022-10-19T20:33:35.100Z,8.90
2022-10-19T20:36:06.776Z,8.30
2022-10-19T20:38:38.607Z,10.57
2022-10-19T20:41:08.282Z,11.23
2022-10-19T20:43:36.810Z,11.73
2022-10-19T20:46:10.854Z,9.02
2022-10-19T20:48:37.605Z,9.10
2022-10-19T20:51:13.438Z,10.85
2022-10-19T20:53:40.964Z,9.27
2022-10-19T20:56:10.042Z,8.85
2022-10-19T20:58:42.730Z,9.25
2022-10-19T21:01:14.844Z,9.95
2022-10-19T21:03:49.717Z,9.30
2022-10-19T21:06:16.862Z,9.70
2022-10-19T21:08:43.645Z,9.90
2022-10-19T21:11:15.319Z,9.30
2022-10-19T21:13:42.929Z,11.93
2022-10-19T21:16:11.353Z,9.60
2022-10-19T21:18:38.751Z,10.13
2022-10-19T21:21:16.235Z,10.23
2022-10-19T21:23:44.750Z,9.85
2022-10-19T21:26:11.639Z,10.57
2022-10-19T21:28:39.879Z,9.68
2022-10-19T21:31:08.950Z,9.38
2022-10-19T21:33:36.083Z,12.40
2022-10-19T21:36:04.911Z,10.48
2022-10-19T21:38:31.844Z,10.60
2022-10-19T21:41:03.996Z,10.35
2022-10-19T21:43:30.996Z,10.65
2022-10-19T21:45:57.719Z,10.00
2022-10-19T21:48:24.529Z,10.77
2022-10-19T21:50:51.249Z,10.15
2022-10-19T21:53:22.547Z,10.65
2022-10-19T21:55:50.637Z,9.30
2022-10-19T21:58:18.003Z,10.07
2022-10-19T22:00:44.727Z,9.77
2022-10-19T22:03:11.517Z,10.38
2022-10-19T22:05:38.255Z,11.45
2022-10-19T22:08:06.427Z,10.40
2022-10-19T22:10:33.236Z,11.10
2022-10-19T22:13:00.086Z,11.10
2022-10-19T22:15:26.813Z,10.50
2022-10-19T22:17:53.557Z,11.65
2022-10-19T22:20:20.217Z,11.05
2022-10-19T22:22:49.216Z,11.27
2022-10-19T22:25:18.190Z,13.13
2022-10-19T22:27:44.919Z,14.75
2022-10-19T22:30:11.774Z,11.38
2022-10-19T22:32:38.885Z,10.95
2022-10-19T22:35:06.423Z,11.60
2022-10-19T22:37:34.646Z,10.32
2022-10-19T22:40:01.544Z,11.63
2022-10-19T22:42:28.232Z,11.63
2022-10-19T22:44:54.942Z,11.73
2022-10-19T22:47:21.663Z,11.45
2022-10-19T22:49:48.391Z,10.20
2022-10-19T22:52:16.424Z,11.48
2022-10-19T22:54:43.437Z,11.43
2022-10-19T22:57:11.695Z,13.48
2022-10-19T22:59:38.669Z,10.55
2022-10-19T23:02:05.516Z,11.55
2022-10-19T23:04:32.409Z,10.35
2022-10-19T23:06:59.104Z,11.25
2022-10-19T23:09:25.800Z,10.68
2022-10-19T23:11:52.466Z,12.95
2022-10-19T23:14:19.108Z,10.80
2022-10-19T23:16:45.843Z,11.35
2022-10-19T23:19:12.574Z,10.93
2022-10-19T23:21:39.275Z,10.82
2022-10-19T23:24:06.206Z,11.05
2022-10-19T23:26:32.873Z,11.55
2022-10-19T23:28:59.596Z,11.15
2022-10-19T23:31:30.075Z,11.30
2022-10-19T23:33:56.861Z,13.20
2022-10-19T23:36:28.492Z,11.75
2022-10-19T23:38:56.405Z,11.80
2022-10-19T23:41:23.363Z,12.82
2022-10-19T23:43:50.126Z,17.27
2022-10-19T23:46:17.120Z,12.75
2022-10-19T23:48:43.908Z,12.07
2022-10-19T23:51:15.726Z,14.00
2022-10-19T23:53:44.082Z,12.23
2022-10-19T23:56:17.188Z,12.35
2022-10-19T23:58:44.645Z,13.30
